Дата Пункты Температура Давл., мм. Влажн., % Ветер Погодные явления
Воздуха Воды Направл. Скорость
25.11.14 04:00 Одесса -1.0 6.0 770 87 Пн-С 8 05 часов
25.11.14 01:00 Одесса -1.0 6.0 770 90 Пн-С 9 02 часа
24.11.14 10:00 Одесса 1.0 6.0 770 88 Пн-С 7 23 часа
24.11.14 07:00 Одесса 2.0 6.0 769 78 Пн 4 20 часов
24.11.14 04:00 Одесса 2.0 6.0 769 78 Пн 4 17 часов
24.11.14 01:00 Одесса 1.0 6.0 769 75 Пн 4 14 часов
24.11.14 10:00 Одесса -1.0 6.0 770 79 Пн 5 11 часов
24.11.14 07:00 Одесса -3.0 6.0 770 85 Пн 5 08 часов
24.11.14 04:00 Одесса -2.0 6.0 770 88 Пн 4 05 часов
24.11.14 01:00 Одесса -1.0 6.0 770 89 Пн 6 02 часа
23.11.14 01:00 Одесса 1.0 6.0 769 78 Пн 3 14 часов
23.11.14 07:00 Одесса -3.0 6.0 769 96 Пн 3 08 часов
23.11.14 04:00 Одесса -2.0 7.0 768 94 Пн 3 05 часов
23.11.14 01:00 Одесса -1.0 7.0 768 89 Пн 3 02 часа
22.11.14 10:00 Одесса 2.0 7.0 767 66 Пн-С 5 23 часа
22.11.14 07:00 Одесса 3.0 7.0 766 61 Пн 5 20 часов
22.11.14 04:00 Одесса 3.0 7.0 766 76 Пн 4 17 часов
22.11.14 01:00 Одесса 2.0 7.0 765 80 Пн 4 14 часов
22.11.14 04:00 Одесса 1.0 7.0 763 76 Пн-С 8 05 часов
22.11.14 01:00 Одесса 3.0 7.0 763 75 Пн-С 9 02 часа
Количество строк
441 442 443 444 445 446 447 448 449 450
Page 445 of 472